Golden Gate, Florida
Current Conditions -  °F | °C
As of 1:53 AM on Monday 22 Dec 2014 (Local Time) from KAPF Reporting Station
Overcast Overcast  
Wind Chill: 69°   Ceiling: 7000
Heat Index: 69°   Visibility: 10mi
Dew Point: 66°   Wind: 5mph
Humidity: 90%   Direction: 100°E
Pressure: 30.02"   Gusts: NA
Location:  26.18°N, 81.7°W
Report Text: KAPF 220653Z AUTO 10004KT 10SM OVC070 21/19 A3002 RMK AO2 SLP165 T02060189
Loading
Personal Weather Stations






























Interactive Weather Map New forecast layout! Learn more

10-Day Weather Forecast

Advertisements
Track Severe Weather on mobile